createdAt,value
2023-03-04T00:02:24.717Z,3.37
2023-03-04T00:04:53.039Z,3.34
2023-03-04T00:07:21.176Z,3.29
2023-03-04T00:09:53.411Z,3.25
2023-03-04T00:12:21.828Z,3.30
2023-03-04T00:14:49.939Z,3.30
2023-03-04T00:17:26.514Z,3.28
2023-03-04T00:19:55.315Z,3.15
2023-03-04T00:22:24.190Z,3.08
2023-03-04T00:24:53.977Z,3.01
2023-03-04T00:27:23.527Z,3.01
2023-03-04T00:29:51.716Z,3.01
2023-03-04T00:32:19.876Z,3.05
2023-03-04T00:34:48.359Z,2.99
2023-03-04T00:37:16.447Z,2.96
2023-03-04T00:39:45.734Z,2.98
2023-03-04T00:42:16.652Z,3.00
2023-03-04T00:44:45.135Z,2.98
2023-03-04T00:47:13.213Z,2.80
2023-03-04T00:49:42.119Z,2.67
2023-03-04T00:52:10.713Z,2.43
2023-03-04T00:54:42.950Z,2.43
2023-03-04T00:57:11.399Z,2.44
2023-03-04T00:59:40.907Z,2.36
2023-03-04T01:02:11.336Z,2.25
2023-03-04T01:04:42.067Z,2.15
2023-03-04T01:07:10.702Z,2.09
2023-03-04T01:09:45.585Z,2.09
2023-03-04T01:12:14.279Z,2.11
2023-03-04T01:14:42.700Z,2.15
2023-03-04T01:17:17.636Z,2.05
2023-03-04T01:19:45.840Z,2.00
2023-03-04T01:22:15.703Z,1.77
2023-03-04T01:24:45.473Z,1.66
2023-03-04T01:27:13.698Z,1.67
2023-03-04T01:29:45.529Z,1.64
2023-03-04T01:32:13.898Z,1.56
2023-03-04T01:34:43.868Z,1.57
2023-03-04T01:37:14.025Z,1.54
2023-03-04T01:39:42.858Z,1.42
2023-03-04T01:42:19.746Z,1.42
2023-03-04T01:44:48.099Z,1.40
2023-03-04T01:47:19.512Z,1.31
2023-03-04T01:49:53.733Z,1.25
2023-03-04T01:52:22.057Z,1.21
2023-03-04T01:54:51.704Z,1.13
2023-03-04T01:57:24.531Z,1.11
2023-03-04T02:00:24.099Z,1.10
2023-03-04T02:02:54.518Z,1.05
2023-03-04T02:05:22.803Z,0.92
2023-03-04T02:07:53.107Z,0.87
2023-03-04T02:10:24.152Z,0.83
2023-03-04T02:12:54.266Z,0.76
2023-03-04T02:15:23.371Z,0.72
2023-03-04T02:17:57.956Z,0.73
2023-03-04T02:20:43.748Z,0.77
2023-03-04T02:23:23.328Z,0.65
2023-03-04T02:26:16.137Z,0.52
2023-03-04T02:28:45.130Z,0.43
2023-03-04T02:31:40.428Z,0.41
2023-03-04T02:34:11.583Z,0.36
2023-03-04T02:36:40.592Z,0.36
2023-03-04T02:39:21.189Z,0.40
2023-03-04T02:41:52.989Z,0.32
2023-03-04T02:44:24.293Z,0.31
2023-03-04T02:46:53.364Z,0.36
2023-03-04T02:49:21.906Z,0.44
2023-03-04T02:52:03.951Z,0.27
2023-03-04T02:54:33.193Z,0.28
2023-03-04T02:57:04.030Z,0.24
2023-03-04T02:59:33.025Z,0.15
2023-03-04T03:02:02.951Z,0.20
2023-03-04T03:04:31.423Z,0.23
2023-03-04T03:06:59.935Z,0.22
2023-03-04T03:09:32.654Z,0.13
2023-03-04T03:12:01.160Z,0.13
2023-03-04T03:14:30.749Z,0.14
2023-03-04T03:17:00.227Z,0.10
2023-03-04T03:19:29.069Z,0.00
2023-03-04T03:21:59.517Z,-0.06
2023-03-04T03:24:29.814Z,-0.08
2023-03-04T03:26:57.992Z,-0.09
2023-03-04T03:29:27.595Z,-0.03
2023-03-04T03:31:57.236Z,-0.03
2023-03-04T03:34:25.458Z,0.01
2023-03-04T03:36:54.078Z,-0.07
2023-03-04T03:39:25.730Z,-0.11
2023-03-04T03:41:54.138Z,-0.24
2023-03-04T03:44:22.235Z,-0.21
2023-03-04T03:46:51.243Z,-0.15
2023-03-04T03:49:19.372Z,-0.06
2023-03-04T03:51:47.925Z,-0.06
2023-03-04T03:54:16.231Z,0.05
2023-03-04T03:56:46.697Z,0.04
2023-03-04T03:59:15.059Z,-0.18
2023-03-04T04:01:43.601Z,-0.22
2023-03-04T04:04:12.233Z,-0.27
2023-03-04T04:06:40.382Z,-0.32
2023-03-04T04:09:08.639Z,-0.30
2023-03-04T04:11:37.594Z,-0.23
2023-03-04T04:14:05.760Z,-0.20
2023-03-04T04:16:34.142Z,-0.25
2023-03-04T04:19:02.254Z,-0.35
2023-03-04T04:21:33.983Z,-0.34
2023-03-04T04:24:03.368Z,-0.40
2023-03-04T04:26:31.542Z,-0.40
2023-03-04T04:29:00.017Z,-0.42
2023-03-04T04:31:28.191Z,-0.42
2023-03-04T04:33:56.569Z,-0.35
2023-03-04T04:36:25.209Z,-0.27
2023-03-04T04:38:57.808Z,-0.26
2023-03-04T04:41:28.470Z,-0.32
2023-03-04T04:43:56.782Z,-0.33
2023-03-04T04:46:26.054Z,-0.27
2023-03-04T04:48:54.496Z,-0.22
2023-03-04T04:51:23.070Z,-0.20
2023-03-04T04:53:51.592Z,-0.19
2023-03-04T04:56:21.517Z,-0.25
2023-03-04T04:58:49.839Z,-0.18
2023-03-04T05:01:18.317Z,-0.16
2023-03-04T05:03:50.854Z,-0.20
2023-03-04T05:06:19.612Z,-0.16
2023-03-04T05:08:55.774Z,-0.13
2023-03-04T05:11:24.365Z,-0.07
2023-03-04T05:13:52.516Z,-0.05
2023-03-04T05:16:22.092Z,-0.02
2023-03-04T05:18:50.288Z,0.04
2023-03-04T05:21:18.509Z,0.11
2023-03-04T05:23:46.985Z,0.17
2023-03-04T05:26:17.650Z,0.15
2023-03-04T05:28:46.786Z,0.25
2023-03-04T05:31:15.434Z,0.37
2023-03-04T05:33:44.848Z,0.51
2023-03-04T05:36:13.212Z,0.49
2023-03-04T05:38:42.485Z,0.53
2023-03-04T05:41:10.920Z,0.54
2023-03-04T05:43:43.047Z,0.63
2023-03-04T05:46:15.826Z,0.66
2023-03-04T05:48:44.082Z,0.79
2023-03-04T05:51:12.302Z,0.90
2023-03-04T05:53:41.380Z,0.92
2023-03-04T05:56:10.732Z,0.99
2023-03-04T05:58:39.564Z,1.13
2023-03-04T06:01:10.937Z,1.18
2023-03-04T06:03:39.811Z,1.26
2023-03-04T06:06:07.968Z,1.37
2023-03-04T06:08:37.473Z,1.50
2023-03-04T06:11:05.790Z,1.49
2023-03-04T06:13:34.909Z,1.57
2023-03-04T06:16:03.509Z,1.74
2023-03-04T06:18:31.835Z,1.93
2023-03-04T06:21:01.119Z,2.09
2023-03-04T06:23:29.752Z,2.21
2023-03-04T06:25:59.422Z,2.34
2023-03-04T06:28:28.160Z,2.36
2023-03-04T06:30:56.556Z,2.47
2023-03-04T06:33:25.821Z,2.53
2023-03-04T06:35:55.797Z,2.66
2023-03-04T06:38:24.822Z,2.72
2023-03-04T06:40:56.062Z,2.77
2023-03-04T06:43:25.874Z,2.85
2023-03-04T06:45:54.453Z,2.94
2023-03-04T06:48:23.080Z,3.06
2023-03-04T06:50:51.111Z,3.16
2023-03-04T06:53:19.207Z,3.24
2023-03-04T06:55:49.864Z,3.35
2023-03-04T06:58:18.891Z,3.50
2023-03-04T07:00:47.093Z,3.49
2023-03-04T07:03:16.255Z,3.60
2023-03-04T07:05:46.552Z,3.71
2023-03-04T07:08:21.188Z,3.74
2023-03-04T07:10:52.175Z,3.81
2023-03-04T07:13:20.535Z,3.81
2023-03-04T07:15:54.097Z,3.85
2023-03-04T07:18:22.841Z,3.93
2023-03-04T07:20:53.129Z,4.04
2023-03-04T07:23:21.250Z,4.27
2023-03-04T07:25:50.315Z,4.37
2023-03-04T07:28:19.052Z,4.44
2023-03-04T07:30:47.590Z,4.62
2023-03-04T07:33:20.070Z,4.75
2023-03-04T07:35:48.601Z,4.82
2023-03-04T07:38:16.889Z,4.95
2023-03-04T07:40:45.416Z,5.07
2023-03-04T07:43:14.282Z,5.12
2023-03-04T07:45:43.479Z,5.26
2023-03-04T07:48:12.561Z,5.18
2023-03-04T07:50:40.694Z,5.16
2023-03-04T07:53:09.593Z,5.24
2023-03-04T07:55:37.992Z,5.37
2023-03-04T07:58:06.104Z,5.49
2023-03-04T08:00:35.481Z,5.47
2023-03-04T08:03:04.411Z,5.59
2023-03-04T08:05:33.075Z,5.60
2023-03-04T08:08:01.274Z,5.69
2023-03-04T08:10:31.909Z,5.69
2023-03-04T08:13:00.262Z,5.76
2023-03-04T08:15:28.393Z,5.80
2023-03-04T08:17:56.765Z,5.86
2023-03-04T08:20:25.239Z,5.96
2023-03-04T08:22:53.625Z,5.94
2023-03-04T08:25:23.213Z,5.99
2023-03-04T08:27:52.575Z,6.10
2023-03-04T08:30:22.451Z,6.06
2023-03-04T08:32:50.827Z,6.07
2023-03-04T08:35:19.094Z,6.06
2023-03-04T08:37:48.068Z,6.12
2023-03-04T08:40:16.245Z,6.12
2023-03-04T08:42:44.332Z,6.05
2023-03-04T08:45:12.505Z,6.09
2023-03-04T08:47:41.051Z,6.29
2023-03-04T08:50:14.736Z,6.27
2023-03-04T08:52:43.960Z,6.32
2023-03-04T08:55:18.517Z,6.30
2023-03-04T08:57:46.977Z,6.25
2023-03-04T09:00:15.699Z,6.23
2023-03-04T09:03:04.174Z,6.23
2023-03-04T09:05:35.204Z,6.25
2023-03-04T09:08:03.406Z,6.24
2023-03-04T09:10:31.853Z,6.00
2023-03-04T09:13:01.233Z,5.92
2023-03-04T09:15:30.610Z,5.90
2023-03-04T09:17:58.692Z,5.86
2023-03-04T09:20:31.616Z,5.92
2023-03-04T09:23:00.813Z,5.89
2023-03-04T09:25:29.435Z,5.79
2023-03-04T09:27:58.484Z,5.68
2023-03-04T09:30:28.825Z,5.64
2023-03-04T09:33:01.338Z,5.70
2023-03-04T09:35:32.866Z,5.62
2023-03-04T09:38:01.203Z,5.56
2023-03-04T09:40:41.520Z,5.65
2023-03-04T09:43:19.903Z,5.67
2023-03-04T09:45:50.905Z,5.70
2023-03-04T09:48:22.218Z,5.72
2023-03-04T09:50:59.649Z,5.72
2023-03-04T09:53:56.737Z,5.80
2023-03-04T09:56:26.052Z,5.83
2023-03-04T09:59:05.216Z,5.84
2023-03-04T10:01:46.530Z,5.83
2023-03-04T10:04:20.762Z,5.81
2023-03-04T10:06:54.773Z,5.84
2023-03-04T10:09:32.858Z,5.84
2023-03-04T10:12:04.268Z,5.71
2023-03-04T10:14:45.085Z,5.66
2023-03-04T10:17:24.756Z,5.69
2023-03-04T10:19:59.478Z,5.70
2023-03-04T10:22:51.947Z,5.72
2023-03-04T10:25:25.840Z,5.66
2023-03-04T10:28:05.351Z,5.73
2023-03-04T10:30:46.484Z,5.77
2023-03-04T10:33:19.589Z,5.72
2023-03-04T10:36:12.698Z,5.74
2023-03-04T10:38:42.105Z,5.79
2023-03-04T10:41:20.190Z,5.74
2023-03-04T10:44:18.816Z,5.79
2023-03-04T10:46:49.056Z,5.77
2023-03-04T10:49:19.541Z,5.75
2023-03-04T10:51:50.230Z,5.74
2023-03-04T10:54:18.552Z,5.69
2023-03-04T10:56:55.439Z,5.68
2023-03-04T10:59:43.657Z,5.63
2023-03-04T11:02:20.408Z,5.59
2023-03-04T11:04:54.772Z,5.69
2023-03-04T11:07:24.778Z,5.72
2023-03-04T11:09:53.578Z,5.76
2023-03-04T11:12:33.359Z,5.73
2023-03-04T11:15:01.716Z,5.66
2023-03-04T11:17:45.757Z,5.61
2023-03-04T11:20:33.324Z,5.63
2023-03-04T11:23:05.730Z,5.55
2023-03-04T11:25:39.210Z,5.62
2023-03-04T11:28:26.683Z,5.63
2023-03-04T11:31:03.846Z,5.72
2023-03-04T11:33:43.282Z,5.84
2023-03-04T11:36:16.432Z,5.84
2023-03-04T11:38:47.612Z,5.89
2023-03-04T11:41:39.504Z,5.96
2023-03-04T11:44:09.044Z,5.99
2023-03-04T11:46:58.851Z,5.98
2023-03-04T11:49:50.180Z,6.05
2023-03-04T11:52:24.026Z,6.14
2023-03-04T11:55:04.385Z,6.29
2023-03-04T11:57:35.661Z,6.30
2023-03-04T12:00:44.220Z,6.34
2023-03-04T12:03:21.424Z,6.36
2023-03-04T12:05:52.645Z,6.39
2023-03-04T12:08:25.564Z,6.28
2023-03-04T12:11:06.126Z,6.30
2023-03-04T12:14:18.672Z,6.31
2023-03-04T12:17:10.718Z,6.34
2023-03-04T12:19:55.613Z,6.31
2023-03-04T12:22:33.989Z,6.29
2023-03-04T12:25:04.086Z,6.30
2023-03-04T12:27:54.332Z,6.42
2023-03-04T12:30:29.869Z,6.44
2023-03-04T12:33:21.447Z,6.47
2023-03-04T12:35:55.866Z,6.40
2023-03-04T12:38:49.344Z,6.38
2023-03-04T12:41:23.648Z,6.38
2023-03-04T12:44:03.991Z,6.39
2023-03-04T12:47:11.869Z,6.26
2023-03-04T12:50:06.311Z,6.13
2023-03-04T12:52:34.577Z,5.99
2023-03-04T12:55:05.418Z,5.94
2023-03-04T12:57:34.761Z,5.96
2023-03-04T13:00:35.480Z,6.00
2023-03-04T13:03:18.870Z,5.96
2023-03-04T13:05:50.010Z,6.01
2023-03-04T13:08:26.243Z,5.88
2023-03-04T13:11:02.144Z,5.96
2023-03-04T13:13:36.427Z,5.95
2023-03-04T13:16:07.044Z,6.04
2023-03-04T13:18:36.785Z,6.08
2023-03-04T13:21:24.084Z,6.14
2023-03-04T13:23:53.279Z,6.20
2023-03-04T13:26:24.300Z,6.27
2023-03-04T13:28:55.265Z,6.20
2023-03-04T13:31:27.240Z,6.09
2023-03-04T13:33:57.148Z,6.06
2023-03-04T13:36:30.939Z,6.11
2023-03-04T13:39:05.495Z,6.08
2023-03-04T13:41:50.491Z,6.01
2023-03-04T13:44:44.033Z,6.01
2023-03-04T13:47:23.041Z,5.99
2023-03-04T13:49:51.853Z,5.94
2023-03-04T13:52:40.673Z,5.99
2023-03-04T13:55:38.316Z,5.90
2023-03-04T13:58:27.117Z,5.91
2023-03-04T14:00:55.778Z,5.95
2023-03-04T14:03:28.624Z,5.80
2023-03-04T14:06:17.016Z,5.76
2023-03-04T14:08:46.178Z,5.74
2023-03-04T14:11:19.863Z,5.74
2023-03-04T14:13:50.639Z,5.76
2023-03-04T14:16:22.844Z,5.73
2023-03-04T14:19:03.470Z,5.70
2023-03-04T14:21:31.705Z,5.64
2023-03-04T14:24:02.658Z,5.62
2023-03-04T14:26:31.950Z,5.64
2023-03-04T14:29:03.126Z,5.71
2023-03-04T14:31:32.041Z,5.66
2023-03-04T14:34:02.517Z,5.59
2023-03-04T14:36:34.076Z,5.66
2023-03-04T14:39:04.219Z,5.63
2023-03-04T14:41:38.066Z,5.60
2023-03-04T14:44:36.064Z,5.57
2023-03-04T14:47:08.551Z,5.55
2023-03-04T14:49:37.225Z,5.52
2023-03-04T14:52:34.481Z,5.50
2023-03-04T14:55:22.701Z,5.45
2023-03-04T14:57:58.682Z,5.35
2023-03-04T15:00:33.387Z,5.31
2023-03-04T15:03:16.566Z,5.31
2023-03-04T15:05:45.423Z,5.37
2023-03-04T15:08:37.681Z,5.37
2023-03-04T15:11:07.070Z,5.41
2023-03-04T15:13:46.942Z,5.35
2023-03-04T15:16:16.122Z,5.29
2023-03-04T15:19:29.287Z,5.24
2023-03-04T15:22:05.480Z,5.16
2023-03-04T15:24:34.616Z,5.17
2023-03-04T15:27:08.165Z,5.13
2023-03-04T15:29:37.510Z,5.15
2023-03-04T15:32:12.147Z,5.16
2023-03-04T15:34:41.077Z,5.21
2023-03-04T15:37:11.605Z,5.20
2023-03-04T15:39:39.737Z,5.26
2023-03-04T15:42:09.518Z,5.27
2023-03-04T15:44:38.772Z,5.16
2023-03-04T15:47:13.027Z,5.07
2023-03-04T15:49:49.335Z,5.12
2023-03-04T15:52:19.590Z,5.18
2023-03-04T15:54:48.422Z,5.17
2023-03-04T15:57:26.843Z,5.19
2023-03-04T15:59:54.981Z,5.25
2023-03-04T16:02:25.150Z,5.08
2023-03-04T16:04:54.320Z,5.00
2023-03-04T16:07:29.056Z,4.91
2023-03-04T16:09:59.528Z,4.84
2023-03-04T16:12:28.435Z,4.91
2023-03-04T16:14:58.226Z,4.88
2023-03-04T16:17:27.482Z,4.92
2023-03-04T16:19:55.667Z,4.89
2023-03-04T16:22:25.747Z,4.84
2023-03-04T16:24:55.534Z,4.90
2023-03-04T16:27:26.735Z,4.96
2023-03-04T16:29:55.184Z,4.97
2023-03-04T16:32:25.028Z,4.93
2023-03-04T16:34:53.251Z,4.95
2023-03-04T16:37:21.782Z,5.00
2023-03-04T16:39:50.069Z,4.98
2023-03-04T16:42:22.208Z,4.96
2023-03-04T16:44:50.403Z,4.98
2023-03-04T16:47:18.541Z,5.00
2023-03-04T16:49:50.455Z,5.07
2023-03-04T16:52:39.090Z,5.09
2023-03-04T16:55:10.907Z,5.17
2023-03-04T16:57:39.061Z,5.24
2023-03-04T17:00:10.590Z,5.22
2023-03-04T17:02:38.936Z,5.13
2023-03-04T17:05:09.858Z,5.17
2023-03-04T17:07:38.776Z,5.17
2023-03-04T17:10:07.211Z,5.13
2023-03-04T17:12:35.637Z,5.18
2023-03-04T17:15:06.208Z,5.25
2023-03-04T17:17:34.646Z,5.27
2023-03-04T17:20:09.495Z,5.25
2023-03-04T17:22:38.032Z,5.26
2023-03-04T17:25:07.232Z,5.12
2023-03-04T17:27:39.205Z,5.16
2023-03-04T17:30:11.132Z,5.17
2023-03-04T17:32:44.738Z,5.08
2023-03-04T17:35:13.232Z,5.08
2023-03-04T17:37:41.757Z,5.15
2023-03-04T17:40:14.348Z,5.13
2023-03-04T17:42:43.229Z,5.11
2023-03-04T17:45:11.584Z,5.16
2023-03-04T17:47:40.643Z,5.06
2023-03-04T17:50:10.363Z,4.98
2023-03-04T17:52:38.927Z,5.08
2023-03-04T17:55:07.888Z,5.12
2023-03-04T17:57:37.842Z,5.11
2023-03-04T18:00:06.863Z,5.19
2023-03-04T18:02:39.723Z,5.27
2023-03-04T18:05:08.134Z,5.33
2023-03-04T18:07:36.959Z,5.32
2023-03-04T18:10:06.711Z,5.40
2023-03-04T18:12:35.131Z,5.39
2023-03-04T18:15:03.866Z,5.36
2023-03-04T18:17:32.879Z,5.39
2023-03-04T18:20:02.271Z,5.42
2023-03-04T18:22:31.380Z,5.42
2023-03-04T18:24:59.641Z,5.45
2023-03-04T18:27:28.471Z,5.49
2023-03-04T18:29:58.027Z,5.57
2023-03-04T18:32:26.159Z,5.58
2023-03-04T18:34:55.355Z,5.60
2023-03-04T18:37:24.610Z,5.64
2023-03-04T18:39:53.603Z,5.66
2023-03-04T18:42:21.924Z,5.72
2023-03-04T18:44:51.473Z,5.75
2023-03-04T18:47:20.201Z,5.76
2023-03-04T18:49:48.409Z,5.77
2023-03-04T18:52:16.633Z,5.78
2023-03-04T18:54:45.544Z,5.80
2023-03-04T18:57:16.780Z,5.84
2023-03-04T18:59:50.914Z,5.87
2023-03-04T19:02:48.167Z,5.77
2023-03-04T19:05:23.198Z,5.75
2023-03-04T19:07:56.184Z,5.71
2023-03-04T19:10:26.028Z,5.59
2023-03-04T19:12:59.770Z,5.59
2023-03-04T19:15:28.230Z,5.54
2023-03-04T19:17:56.389Z,5.54
2023-03-04T19:20:29.495Z,5.55
2023-03-04T19:22:58.592Z,5.47
2023-03-04T19:25:26.845Z,5.34
2023-03-04T19:27:56.595Z,5.42
2023-03-04T19:30:25.066Z,5.46
2023-03-04T19:32:55.201Z,5.48
2023-03-04T19:35:23.756Z,5.52
2023-03-04T19:37:52.033Z,5.48
2023-03-04T19:40:21.267Z,5.55
2023-03-04T19:42:49.421Z,5.46
2023-03-04T19:45:18.021Z,5.39
2023-03-04T19:47:46.583Z,5.38
2023-03-04T19:50:16.777Z,5.34
2023-03-04T19:52:45.852Z,5.31
2023-03-04T19:55:20.415Z,5.35
2023-03-04T19:57:49.012Z,5.38
2023-03-04T20:00:17.524Z,5.41
2023-03-04T20:02:48.110Z,5.40
2023-03-04T20:05:16.640Z,5.33
2023-03-04T20:07:50.068Z,5.32
2023-03-04T20:10:19.723Z,5.40
2023-03-04T20:12:47.881Z,5.39
2023-03-04T20:15:16.464Z,5.27
2023-03-04T20:17:45.768Z,5.29
2023-03-04T20:20:15.950Z,5.34
2023-03-04T20:22:44.684Z,5.45
2023-03-04T20:25:13.464Z,5.46
2023-03-04T20:27:42.979Z,5.34
2023-03-04T20:30:13.146Z,5.31
2023-03-04T20:32:41.484Z,5.31
2023-03-04T20:35:14.135Z,5.36
2023-03-04T20:37:42.377Z,5.34
2023-03-04T20:40:11.607Z,5.27
2023-03-04T20:42:39.958Z,5.29
2023-03-04T20:45:11.046Z,5.32
2023-03-04T20:47:40.002Z,5.31
2023-03-04T20:50:11.301Z,5.24
2023-03-04T20:52:40.305Z,5.25
2023-03-04T20:55:09.376Z,5.25
2023-03-04T20:57:38.749Z,5.18
2023-03-04T21:00:08.839Z,5.21
2023-03-04T21:02:40.052Z,5.22
2023-03-04T21:05:08.806Z,5.16
2023-03-04T21:07:36.964Z,5.09
2023-03-04T21:10:05.541Z,5.06
2023-03-04T21:12:34.080Z,5.10
2023-03-04T21:15:09.095Z,5.15
2023-03-04T21:17:39.943Z,5.12
2023-03-04T21:20:09.453Z,5.18
2023-03-04T21:22:37.746Z,5.22
2023-03-04T21:25:06.638Z,5.19
2023-03-04T21:27:38.799Z,5.19
2023-03-04T21:30:08.705Z,5.25
2023-03-04T21:32:36.992Z,5.22
2023-03-04T21:35:05.870Z,5.26
2023-03-04T21:37:34.562Z,5.24
2023-03-04T21:40:04.245Z,5.21
2023-03-04T21:42:32.904Z,5.24
2023-03-04T21:45:02.599Z,5.28
2023-03-04T21:47:31.746Z,5.22
2023-03-04T21:50:00.741Z,5.16
2023-03-04T21:52:29.095Z,5.09
2023-03-04T21:54:57.406Z,5.08
2023-03-04T21:57:27.312Z,5.05
2023-03-04T21:59:55.731Z,5.02
2023-03-04T22:02:23.971Z,4.99
2023-03-04T22:04:53.967Z,5.11
2023-03-04T22:07:22.563Z,5.11
2023-03-04T22:09:54.614Z,5.14
2023-03-04T22:12:22.805Z,5.15
2023-03-04T22:14:50.966Z,5.20
2023-03-04T22:17:19.095Z,5.18
2023-03-04T22:19:47.301Z,5.19
2023-03-04T22:22:20.148Z,5.19
2023-03-04T22:24:48.570Z,5.20
2023-03-04T22:27:16.820Z,5.25
2023-03-04T22:29:45.086Z,5.25
2023-03-04T22:32:15.306Z,5.25
2023-03-04T22:34:46.854Z,5.22
2023-03-04T22:37:15.307Z,5.25
2023-03-04T22:39:43.524Z,5.26
2023-03-04T22:42:12.120Z,5.25
2023-03-04T22:44:40.626Z,5.26
2023-03-04T22:47:08.754Z,5.28
2023-03-04T22:49:37.990Z,5.28
2023-03-04T22:52:07.865Z,5.31
2023-03-04T22:54:36.632Z,5.34
2023-03-04T22:57:05.410Z,5.31
2023-03-04T22:59:42.015Z,5.37
2023-03-04T23:02:10.799Z,5.43
2023-03-04T23:04:41.716Z,5.37
2023-03-04T23:07:11.200Z,5.34
2023-03-04T23:09:39.326Z,5.32
2023-03-04T23:12:07.865Z,5.30
2023-03-04T23:14:36.245Z,5.27
2023-03-04T23:17:05.289Z,5.24
2023-03-04T23:19:33.531Z,5.24
2023-03-04T23:22:02.833Z,5.29
2023-03-04T23:24:31.146Z,5.30
2023-03-04T23:26:59.681Z,5.24
2023-03-04T23:29:27.764Z,5.22
2023-03-04T23:31:56.078Z,5.21
2023-03-04T23:34:25.950Z,5.21
2023-03-04T23:36:54.461Z,5.14
2023-03-04T23:39:22.921Z,5.13
2023-03-04T23:41:51.565Z,5.16
2023-03-04T23:44:20.108Z,5.21
2023-03-04T23:46:48.234Z,5.18
2023-03-04T23:49:18.065Z,5.10
2023-03-04T23:51:46.361Z,5.06
2023-03-04T23:54:14.540Z,5.01
2023-03-04T23:56:42.696Z,4.96
2023-03-04T23:59:12.436Z,4.84
